Time;durP1;ratioP1;P1;durP2;ratioP2;P2;SDS_P1;SDS_P2;PMS_P1;PMS_P2;Temp;Humidity;BMP_temperature;BMP_pressure;BME280_temperature;BME280_humidity;BME280_pressure;Samples;Min_cycle;Max_cycle;Signal;HPM_P1;HPM_P2
2022/03/03 00:00:21;;;;;;;24.77;13.63;;;1.60;99.90;;;;;;5119321;28;20463;-65
2022/03/03 00:02:46;;;;;;;28.37;14.23;;;1.60;99.90;;;;;;5099880;28;20433;-65
2022/03/03 00:05:13;;;;;;;28.40;13.20;;;1.60;99.90;;;;;;5117894;28;20031;-65
2022/03/03 00:07:39;;;;;;;26.95;14.27;;;1.60;99.90;;;;;;5118431;28;20047;-64
2022/03/03 00:10:07;;;;;;;24.85;14.10;;;1.60;99.90;;;;;;5118744;28;20024;-65
2022/03/03 00:12:32;;;;;;;26.02;14.25;;;1.60;99.90;;;;;;5119586;28;20466;-65
2022/03/03 00:14:58;;;;;;;25.90;14.23;;;2.00;99.90;;;;;;5118993;28;20036;-65
2022/03/03 00:17:24;;;;;;;25.37;13.30;;;1.90;99.90;;;;;;5119276;28;20049;-64
2022/03/03 00:19:50;;;;;;;22.77;13.55;;;1.90;99.90;;;;;;5119481;28;20491;-65
2022/03/03 00:22:17;;;;;;;28.98;13.95;;;1.80;99.90;;;;;;5118661;28;20480;-66
2022/03/03 00:24:43;;;;;;;22.47;13.40;;;1.70;99.90;;;;;;5119043;28;20077;-64
2022/03/03 00:27:09;;;;;;;24.38;13.15;;;1.60;99.90;;;;;;5118837;28;20023;-64
2022/03/03 00:29:35;;;;;;;23.63;13.10;;;1.60;99.90;;;;;;5118228;28;20024;-63
2022/03/03 00:32:01;;;;;;;28.88;15.93;;;1.50;99.90;;;;;;5118529;28;20038;-65
2022/03/03 00:34:26;;;;;;;28.83;14.27;;;1.50;99.90;;;;;;5118525;28;20020;-64
2022/03/03 00:36:53;;;;;;;29.50;14.87;;;1.50;99.90;;;;;;5118852;28;20028;-64
2022/03/03 00:39:18;;;;;;;28.73;14.45;;;1.50;99.90;;;;;;5119025;28;20033;-65
2022/03/03 00:41:44;;;;;;;25.00;14.37;;;1.40;99.90;;;;;;5119978;28;20190;-65
2022/03/03 00:44:10;;;;;;;28.27;14.70;;;1.30;99.90;;;;;;5119814;28;20016;-65
2022/03/03 00:46:38;;;;;;;27.20;13.67;;;1.30;99.90;;;;;;5118416;28;20096;-64
2022/03/03 00:49:05;;;;;;;32.88;15.35;;;1.20;99.90;;;;;;5118442;28;20483;-65
2022/03/03 00:51:31;;;;;;;27.00;14.23;;;1.20;99.90;;;;;;5098765;28;20032;-64
2022/03/03 00:53:57;;;;;;;23.45;13.43;;;1.20;99.90;;;;;;5100022;28;20031;-64
2022/03/03 00:56:24;;;;;;;27.80;14.23;;;1.10;99.90;;;;;;5117545;28;20038;-65
2022/03/03 00:58:49;;;;;;;27.33;14.43;;;1.10;99.90;;;;;;5099240;28;20046;-65
2022/03/03 01:01:15;;;;;;;25.40;14.13;;;1.00;99.90;;;;;;5099797;28;20016;-64
2022/03/03 01:03:41;;;;;;;28.45;14.68;;;1.00;99.90;;;;;;5117877;28;20027;-64
2022/03/03 01:06:07;;;;;;;32.20;14.77;;;0.90;99.90;;;;;;5098983;28;20112;-65
2022/03/03 01:08:32;;;;;;;30.63;15.88;;;0.90;99.90;;;;;;5099318;28;20031;-66
2022/03/03 01:10:58;;;;;;;26.33;14.33;;;0.90;99.90;;;;;;5117358;28;20030;-65
2022/03/03 01:13:24;;;;;;;28.73;14.68;;;0.90;99.90;;;;;;5117256;28;20480;-65
2022/03/03 01:15:50;;;;;;;24.67;13.73;;;1.00;99.90;;;;;;5116888;28;20054;-64
2022/03/03 01:18:17;;;;;;;28.02;14.13;;;0.90;99.90;;;;;;5117090;28;20261;-64
2022/03/03 01:20:42;;;;;;;26.85;13.73;;;0.90;99.90;;;;;;5116831;28;20078;-65
2022/03/03 01:23:08;;;;;;;29.00;15.17;;;0.80;99.90;;;;;;5098053;28;20484;-64
2022/03/03 01:25:34;;;;;;;29.87;15.27;;;0.80;99.90;;;;;;5116374;28;20015;-64
2022/03/03 01:27:59;;;;;;;29.20;14.93;;;0.80;99.90;;;;;;5116098;28;20028;-64
2022/03/03 01:30:25;;;;;;;27.30;15.00;;;0.80;99.90;;;;;;5116206;28;20209;-64
2022/03/03 01:32:51;;;;;;;32.72;14.68;;;0.80;99.90;;;;;;5114530;28;20028;-65
2022/03/03 01:35:16;;;;;;;27.80;13.73;;;0.90;99.90;;;;;;5115587;28;20036;-64
2022/03/03 01:37:42;;;;;;;25.13;13.47;;;1.00;99.90;;;;;;5116730;28;20023;-64
2022/03/03 01:40:09;;;;;;;26.50;14.80;;;1.00;99.90;;;;;;5116000;28;20429;-65
2022/03/03 01:42:35;;;;;;;30.45;15.13;;;1.00;99.90;;;;;;5115678;28;20483;-65
2022/03/03 01:45:00;;;;;;;25.80;15.23;;;1.00;99.90;;;;;;5115348;28;20035;-63
2022/03/03 01:47:27;;;;;;;27.23;15.13;;;1.10;99.90;;;;;;5097085;28;20336;-64
2022/03/03 01:49:53;;;;;;;;;;;1.10;99.90;;;;;;5115711;28;20042;-64
2022/03/03 01:52:19;;;;;;;26.27;15.75;;;1.10;99.90;;;;;;5097055;28;20003;-64
2022/03/03 01:54:45;;;;;;;25.38;13.95;;;1.10;99.90;;;;;;5096876;28;20039;-64
2022/03/03 01:57:11;;;;;;;26.90;14.20;;;1.10;99.90;;;;;;5115199;28;20023;-64
2022/03/03 01:59:37;;;;;;;25.20;13.85;;;1.40;99.90;;;;;;5115853;28;20261;-64
2022/03/03 02:02:07;;;;;;;24.88;14.00;;;1.60;99.90;;;;;;5116008;28;20365;-64
2022/03/03 02:04:32;;;;;;;26.77;13.90;;;1.60;99.90;;;;;;5113332;28;20055;-65
2022/03/03 02:06:59;;;;;;;29.63;13.73;;;1.60;99.90;;;;;;5115365;28;20352;-62
2022/03/03 02:09:25;;;;;;;23.42;12.82;;;1.70;99.90;;;;;;5114690;28;20027;-64
2022/03/03 02:11:51;;;;;;;25.63;14.73;;;1.50;99.90;;;;;;5116748;28;20440;-64
2022/03/03 02:14:17;;;;;;;29.67;14.32;;;1.30;99.90;;;;;;5116837;28;20020;-65
2022/03/03 02:16:43;;;;;;;28.13;13.48;;;1.10;99.90;;;;;;5115114;28;20027;-64
2022/03/03 02:19:17;;;;;;;26.00;13.43;;;1.10;99.90;;;;;;5114783;28;20042;-64
2022/03/03 02:21:48;;;;;;;26.30;13.60;;;1.00;99.90;;;;;;5114662;28;20149;-64
2022/03/03 02:24:14;;;;;;;27.83;14.55;;;1.00;99.90;;;;;;5114397;28;20016;-65
2022/03/03 02:26:41;;;;;;;27.23;14.70;;;0.90;99.90;;;;;;5115042;28;20325;-64
2022/03/03 02:29:06;;;;;;;;;;;0.90;99.90;;;;;;5115033;28;20027;-64
2022/03/03 02:31:32;;;;;;;31.33;14.07;;;0.80;99.90;;;;;;5114823;28;19910;-64
2022/03/03 02:33:58;;;;;;;28.23;14.03;;;0.80;99.90;;;;;;5114184;28;20070;-63
2022/03/03 02:36:28;;;;;;;23.05;13.35;;;0.80;99.90;;;;;;5095673;28;20285;-63
2022/03/03 02:38:56;;;;;;;25.90;13.77;;;0.80;99.90;;;;;;5114039;28;20425;-63
2022/03/03 02:41:24;;;;;;;26.70;14.40;;;0.80;99.90;;;;;;5114677;28;20030;-64
2022/03/03 02:43:50;;;;;;;26.52;14.57;;;0.90;99.90;;;;;;5114567;28;20056;-64
2022/03/03 02:46:17;;;;;;;27.35;13.95;;;0.90;99.90;;;;;;5115052;28;20045;-64
2022/03/03 02:48:42;;;;;;;22.90;13.18;;;0.90;99.90;;;;;;5114767;28;20039;-64
2022/03/03 02:51:09;;;;;;;27.03;13.67;;;0.90;99.90;;;;;;5095957;28;20098;-63
2022/03/03 02:53:35;;;;;;;25.77;13.65;;;0.90;99.90;;;;;;5095716;28;20097;-63
2022/03/03 02:56:01;;;;;;;;;;;0.90;99.90;;;;;;5096415;28;20605;-64
2022/03/03 02:58:27;;;;;;;26.75;14.07;;;0.90;99.90;;;;;;5114393;28;19953;-64
2022/03/03 03:00:53;;;;;;;27.92;14.60;;;0.90;99.90;;;;;;5114439;28;20020;-63
2022/03/03 03:03:19;;;;;;;24.33;14.27;;;0.90;99.90;;;;;;5114357;28;20023;-65
2022/03/03 03:05:45;;;;;;;25.83;13.63;;;0.80;99.90;;;;;;5112615;28;20038;-63
2022/03/03 03:08:12;;;;;;;23.90;13.35;;;0.80;99.90;;;;;;5114120;28;20047;-63
2022/03/03 03:10:38;;;;;;;25.23;13.48;;;0.80;99.90;;;;;;5113855;28;20027;-64
2022/03/03 03:13:04;;;;;;;25.17;14.75;;;0.80;99.90;;;;;;5113095;28;20031;-64
2022/03/03 03:15:30;;;;;;;;;;;0.80;99.90;;;;;;5114729;28;20019;-65
2022/03/03 03:18:08;;;;;;;28.88;13.55;;;0.80;99.90;;;;;;5113772;28;19949;-64
2022/03/03 03:20:34;;;;;;;24.50;13.18;;;0.70;99.90;;;;;;5113983;28;20117;-64
2022/03/03 03:22:59;;;;;;;26.38;14.23;;;0.70;99.90;;;;;;5113952;28;20623;-62
2022/03/03 03:25:25;;;;;;;28.07;13.77;;;0.80;99.90;;;;;;5113996;28;20031;-63
2022/03/03 03:27:50;;;;;;;25.33;14.07;;;0.80;99.90;;;;;;5113801;28;20058;-64
2022/03/03 03:30:16;;;;;;;27.93;14.30;;;0.70;99.90;;;;;;5114052;28;20024;-64
2022/03/03 03:32:42;;;;;;;28.43;15.23;;;0.70;99.90;;;;;;5095667;28;20051;-64
2022/03/03 03:35:08;;;;;;;26.90;14.63;;;0.70;99.90;;;;;;5113481;28;20080;-65
2022/03/03 03:37:36;;;;;;;26.80;14.77;;;0.70;99.90;;;;;;5113879;28;20172;-65
2022/03/03 03:40:02;;;;;;;26.15;14.38;;;0.60;99.90;;;;;;5113469;28;20028;-64
2022/03/03 03:42:28;;;;;;;24.70;14.32;;;0.60;99.90;;;;;;5095873;28;20024;-64
2022/03/03 03:44:53;;;;;;;28.00;14.60;;;0.50;99.90;;;;;;5113095;28;20391;-63
2022/03/03 03:47:19;;;;;;;22.30;13.23;;;0.50;99.90;;;;;;5113479;28;20030;-64
2022/03/03 03:49:44;;;;;;;28.40;14.07;;;0.40;99.90;;;;;;5113238;28;20050;-65
2022/03/03 03:52:10;;;;;;;28.93;14.30;;;0.40;99.90;;;;;;5113305;28;20030;-64
2022/03/03 03:54:36;;;;;;;29.30;15.13;;;0.30;99.90;;;;;;5094990;28;20020;-65
2022/03/03 03:57:01;;;;;;;27.73;14.77;;;0.20;99.90;;;;;;5113189;28;20082;-65
2022/03/03 03:59:27;;;;;;;31.27;15.80;;;0.10;99.90;;;;;;5113690;28;20081;-64
2022/03/03 04:01:52;;;;;;;32.07;14.80;;;0.10;99.90;;;;;;5113375;28;20090;-64
2022/03/03 04:04:18;;;;;;;24.30;14.00;;;0.10;99.90;;;;;;5112998;28;20077;-64
2022/03/03 04:06:44;;;;;;;24.63;13.40;;;0.10;99.90;;;;;;5114148;28;20048;-63
2022/03/03 04:09:17;;;;;;;30.00;15.23;;;0.10;99.90;;;;;;5113184;28;20051;-64
2022/03/03 04:11:42;;;;;;;26.88;14.75;;;0.00;99.90;;;;;;5112914;28;20058;-64
2022/03/03 04:14:08;;;;;;;28.97;14.43;;;0.00;99.90;;;;;;5113394;28;20067;-63
2022/03/03 04:16:33;;;;;;;30.40;13.63;;;0.10;99.90;;;;;;5113052;28;20107;-64
2022/03/03 04:19:00;;;;;;;27.77;14.60;;;0.10;99.90;;;;;;5115405;28;20069;-64
2022/03/03 04:21:26;;;;;;;25.13;13.52;;;-0.10;99.90;;;;;;5113236;28;20016;-63
2022/03/03 04:23:52;;;;;;;27.47;13.93;;;-0.10;99.90;;;;;;5113388;28;20065;-64
2022/03/03 04:26:17;;;;;;;27.10;13.47;;;-0.10;99.90;;;;;;5116824;28;20031;-64
2022/03/03 04:28:43;;;;;;;24.77;14.23;;;-0.20;99.90;;;;;;5117115;28;20028;-64
2022/03/03 04:31:10;;;;;;;27.40;13.67;;;-0.20;99.90;;;;;;5117237;28;20035;-64
2022/03/03 04:33:37;;;;;;;24.10;13.73;;;-0.10;99.90;;;;;;5116822;28;20360;-63
2022/03/03 04:36:04;;;;;;;27.63;14.88;;;-0.20;99.90;;;;;;5116996;28;20534;-64
2022/03/03 04:38:29;;;;;;;;;;;0.00;99.90;;;;;;5116872;28;20472;-63
2022/03/03 04:40:55;;;;;;;22.90;13.48;;;0.20;99.90;;;;;;5117266;28;19910;-65
2022/03/03 04:43:20;;;;;;;27.00;14.57;;;0.20;99.90;;;;;;5116655;28;20081;-64
2022/03/03 04:45:46;;;;;;;26.63;13.80;;;0.30;99.90;;;;;;5099020;28;20026;-64
2022/03/03 04:48:11;;;;;;;27.60;13.97;;;0.20;99.90;;;;;;5116562;28;20031;-65
2022/03/03 04:50:37;;;;;;;27.43;12.90;;;0.20;99.90;;;;;;5116573;28;20039;-62
2022/03/03 04:53:03;;;;;;;25.75;13.77;;;0.20;99.90;;;;;;5116732;28;20027;-63
2022/03/03 04:55:29;;;;;;;31.90;15.57;;;0.20;99.90;;;;;;5097818;28;20028;-62
2022/03/03 04:57:54;;;;;;;25.55;13.95;;;0.20;99.90;;;;;;5116342;28;20016;-63
2022/03/03 05:00:20;;;;;;;24.73;13.60;;;0.20;99.90;;;;;;5097921;28;20198;-63
2022/03/03 05:02:46;;;;;;;25.88;14.55;;;0.20;99.90;;;;;;5116141;28;20028;-63
2022/03/03 05:05:11;;;;;;;26.33;14.60;;;0.10;99.90;;;;;;5116283;28;20120;-63
2022/03/03 05:07:37;;;;;;;26.40;14.83;;;0.00;99.90;;;;;;5116530;28;20111;-63
2022/03/03 05:10:04;;;;;;;26.50;14.00;;;0.00;99.90;;;;;;5115946;28;20034;-61
2022/03/03 05:12:30;;;;;;;30.45;14.93;;;0.10;99.90;;;;;;5116164;28;20038;-64
2022/03/03 05:14:56;;;;;;;29.40;14.13;;;0.00;99.90;;;;;;5116037;28;20028;-64
2022/03/03 05:17:22;;;;;;;34.80;14.88;;;0.10;99.90;;;;;;5116310;28;20081;-63
2022/03/03 05:19:49;;;;;;;26.08;14.32;;;0.10;99.90;;;;;;5116072;28;20019;-64
2022/03/03 05:22:15;;;;;;;27.85;13.80;;;0.00;99.90;;;;;;5116112;28;20023;-64
2022/03/03 05:24:40;;;;;;;27.00;13.57;;;0.00;99.90;;;;;;5115987;28;20537;-64
2022/03/03 05:27:06;;;;;;;26.97;14.47;;;0.20;99.90;;;;;;5098057;28;20020;-64
2022/03/03 05:29:32;;;;;;;25.30;14.47;;;0.30;99.90;;;;;;5116409;28;20376;-64
2022/03/03 05:31:58;;;;;;;25.47;13.90;;;0.50;99.90;;;;;;5116249;28;20472;-64
2022/03/03 05:34:25;;;;;;;28.88;15.02;;;0.40;99.90;;;;;;5116012;28;20016;-64
2022/03/03 05:36:51;;;;;;;26.75;14.10;;;0.20;99.90;;;;;;5115185;28;20036;-63
2022/03/03 05:39:17;;;;;;;28.48;14.77;;;0.10;99.90;;;;;;5116293;28;20034;-63
2022/03/03 05:41:43;;;;;;;26.17;14.30;;;0.10;99.90;;;;;;5097665;28;20023;-63
2022/03/03 05:44:14;;;;;;;30.03;15.50;;;0.00;99.90;;;;;;5097363;28;20268;-64
2022/03/03 05:46:43;;;;;;;28.00;14.55;;;0.00;99.90;;;;;;5115871;28;20077;-64
2022/03/03 05:49:10;;;;;;;28.13;14.52;;;-0.10;99.90;;;;;;5115930;28;20383;-64
2022/03/03 05:51:36;;;;;;;;;;;-0.10;99.90;;;;;;5114973;28;20055;-63
2022/03/03 05:54:02;;;;;;;26.65;14.13;;;0.00;99.90;;;;;;5115916;28;20066;-64
2022/03/03 05:56:29;;;;;;;;;;;0.00;99.90;;;;;;5114946;28;20088;-63
2022/03/03 05:59:00;;;;;;;28.25;14.68;;;0.00;99.90;;;;;;5097548;28;19949;-63
2022/03/03 06:01:26;;;;;;;30.63;14.80;;;-0.10;99.90;;;;;;5115918;28;20027;-62
2022/03/03 06:03:56;;;;;;;26.55;14.93;;;-0.10;99.90;;;;;;5097387;28;20567;-62
2022/03/03 06:06:28;;;;;;;24.40;14.25;;;-0.20;99.90;;;;;;5116603;28;20036;-63
2022/03/03 06:09:00;;;;;;;26.83;13.77;;;-0.20;99.90;;;;;;5116343;28;20020;-62
2022/03/03 06:11:27;;;;;;;30.55;15.02;;;-0.20;99.90;;;;;;5115783;28;20051;-63
2022/03/03 06:14:07;;;;;;;25.80;14.38;;;-0.30;99.90;;;;;;5114898;28;20034;-63
2022/03/03 06:16:35;;;;;;;28.63;15.60;;;-0.30;99.90;;;;;;5097531;28;20019;-62
2022/03/03 06:19:02;;;;;;;30.40;15.18;;;-0.40;99.90;;;;;;5115613;28;20023;-62
2022/03/03 06:21:28;;;;;;;;;;;-0.50;99.90;;;;;;5097687;28;20072;-63
2022/03/03 06:23:53;;;;;;;32.40;14.43;;;-0.50;99.90;;;;;;5115742;28;19931;-64
2022/03/03 06:26:19;;;;;;;26.77;14.60;;;-0.60;99.90;;;;;;5115967;28;20024;-63
2022/03/03 06:28:46;;;;;;;28.92;14.82;;;-0.70;99.90;;;;;;5116074;28;20020;-63
2022/03/03 06:31:12;;;;;;;31.95;15.32;;;-0.80;99.90;;;;;;5097726;28;20040;-64
2022/03/03 06:33:38;;;;;;;28.33;14.23;;;-0.90;99.90;;;;;;5116412;28;20023;-64
2022/03/03 06:36:04;;;;;;;30.38;15.85;;;-0.90;99.90;;;;;;5116643;28;20031;-63
2022/03/03 06:38:31;;;;;;;26.90;15.48;;;-0.90;99.90;;;;;;5117307;28;20046;-63
2022/03/03 06:40:57;;;;;;;30.23;14.05;;;-0.90;99.90;;;;;;5116483;28;20024;-63
2022/03/03 06:43:29;;;;;;;29.23;14.52;;;-0.50;99.90;;;;;;5098749;28;20030;-65
2022/03/03 06:45:58;;;;;;;30.20;14.88;;;-0.10;99.90;;;;;;5120130;28;20515;-63
2022/03/03 06:48:24;;;;;;;26.55;14.00;;;0.00;99.90;;;;;;5118832;28;20027;-64
2022/03/03 06:50:51;;;;;;;29.05;14.52;;;-0.10;99.90;;;;;;5119052;28;20039;-64
2022/03/03 06:53:24;;;;;;;34.20;15.52;;;-0.20;99.90;;;;;;5124218;28;20507;-65
2022/03/03 06:55:52;;;;;;;23.75;13.75;;;0.00;99.90;;;;;;5119458;28;20360;-65
2022/03/03 06:58:21;;;;;;;30.10;14.77;;;0.20;99.90;;;;;;5118910;28;20034;-65
2022/03/03 07:00:51;;;;;;;34.40;13.73;;;0.30;99.90;;;;;;5119193;28;20106;-65
2022/03/03 07:03:19;;;;;;;25.92;14.57;;;0.30;99.90;;;;;;5120433;28;20091;-65
2022/03/03 07:05:45;;;;;;;30.88;14.52;;;0.00;99.90;;;;;;5121257;28;20028;-65
2022/03/03 07:08:11;;;;;;;27.33;14.30;;;-0.20;99.90;;;;;;5116270;28;20462;-65
2022/03/03 07:10:37;;;;;;;26.73;15.32;;;0.10;99.90;;;;;;5115501;28;20498;-64
2022/03/03 07:13:03;;;;;;;28.83;14.68;;;0.20;99.90;;;;;;5115577;28;20031;-65
2022/03/03 07:15:29;;;;;;;25.08;12.95;;;0.20;99.90;;;;;;5115588;28;20080;-65
2022/03/03 07:18:00;;;;;;;31.93;14.87;;;0.40;99.90;;;;;;5117819;28;20019;-64
2022/03/03 07:20:50;;;;;;;26.60;13.18;;;0.40;99.90;;;;;;5116805;28;20031;-65
2022/03/03 07:23:30;;;;;;;26.85;12.52;;;0.30;99.90;;;;;;5116951;28;20030;-65
2022/03/03 07:25:59;;;;;;;25.48;12.70;;;0.40;99.90;;;;;;5117719;28;20023;-65
2022/03/03 07:28:27;;;;;;;26.75;13.68;;;0.50;99.90;;;;;;5117769;28;20034;-62
2022/03/03 07:30:54;;;;;;;31.58;14.73;;;0.30;99.90;;;;;;5117477;28;20086;-64
2022/03/03 07:33:24;;;;;;;24.80;13.85;;;0.50;99.90;;;;;;5117773;28;20034;-65
2022/03/03 07:35:55;;;;;;;26.02;12.68;;;0.50;99.90;;;;;;5117020;28;20476;-65
2022/03/03 07:38:26;;;;;;;26.58;14.18;;;0.40;99.90;;;;;;5114943;28;20535;-62
2022/03/03 07:40:52;;;;;;;29.00;13.32;;;0.50;99.90;;;;;;5114585;28;20030;-64
2022/03/03 07:43:18;;;;;;;30.45;14.10;;;0.80;99.90;;;;;;5114317;28;20030;-64
2022/03/03 07:45:46;;;;;;;24.48;13.38;;;0.70;99.90;;;;;;5114172;28;20483;-64
2022/03/03 07:48:13;;;;;;;24.58;13.52;;;0.60;99.90;;;;;;5095759;28;20487;-63
2022/03/03 07:50:39;;;;;;;31.95;13.80;;;0.60;99.90;;;;;;5113997;28;20434;-65
2022/03/03 07:53:10;;;;;;;25.17;13.55;;;0.60;99.90;;;;;;5114265;28;20080;-63
2022/03/03 07:55:45;;;;;;;31.65;15.45;;;0.70;99.90;;;;;;5113566;28;20028;-65
2022/03/03 07:58:21;;;;;;;27.73;13.57;;;0.70;99.90;;;;;;5113845;28;20020;-62
2022/03/03 08:00:53;;;;;;;28.42;14.27;;;0.70;99.90;;;;;;5117426;28;20030;-59
2022/03/03 08:03:21;;;;;;;27.00;13.82;;;0.80;99.90;;;;;;5118370;28;20355;-66
2022/03/03 08:05:53;;;;;;;29.60;14.98;;;0.80;99.90;;;;;;5117350;28;20071;-60
2022/03/03 08:08:24;;;;;;;29.67;14.52;;;0.90;99.90;;;;;;5099641;28;20445;-64
2022/03/03 08:10:55;;;;;;;27.48;14.18;;;1.00;99.90;;;;;;5118718;28;20047;-61
2022/03/03 08:13:21;;;;;;;25.17;15.05;;;1.10;99.90;;;;;;5117433;28;20028;-64
2022/03/03 08:15:46;;;;;;;30.77;15.43;;;1.20;99.90;;;;;;5118271;28;20110;-60
2022/03/03 08:18:13;;;;;;;28.77;14.13;;;1.30;99.90;;;;;;5117860;28;20055;-62
2022/03/03 08:20:39;;;;;;;25.13;14.70;;;1.40;99.90;;;;;;5118560;28;20115;-65
2022/03/03 08:23:06;;;;;;;26.35;13.25;;;1.50;99.90;;;;;;5119241;28;20020;-65
2022/03/03 08:25:34;;;;;;;29.83;15.07;;;1.60;99.90;;;;;;5118594;28;20041;-65
2022/03/03 08:28:01;;;;;;;29.27;15.13;;;1.70;99.90;;;;;;5118814;28;20024;-64
2022/03/03 08:30:27;;;;;;;29.75;16.50;;;1.80;99.90;;;;;;5118382;28;20023;-65
2022/03/03 08:33:17;;;;;;;30.00;15.18;;;1.90;99.90;;;;;;5118743;28;20050;-63
2022/03/03 08:35:49;;;;;;;28.83;14.25;;;2.00;99.90;;;;;;5120834;28;20032;-65
2022/03/03 08:38:36;;;;;;;30.25;15.75;;;2.10;99.90;;;;;;5125302;28;20354;-66
2022/03/03 08:41:04;;;;;;;30.88;15.88;;;2.20;99.90;;;;;;5122546;28;20019;-65
2022/03/03 08:43:32;;;;;;;29.50;16.02;;;2.30;99.90;;;;;;5118595;28;20102;-66
2022/03/03 08:46:04;;;;;;;31.65;15.38;;;2.20;99.90;;;;;;5099133;28;20030;-67
2022/03/03 08:48:32;;;;;;;30.60;15.35;;;2.30;99.90;;;;;;5117680;28;20389;-66
2022/03/03 08:50:59;;;;;;;30.25;15.00;;;2.30;99.90;;;;;;5117074;28;20474;-65
2022/03/03 08:53:25;;;;;;;30.85;15.68;;;2.40;99.90;;;;;;5097935;28;20068;-65
2022/03/03 08:55:53;;;;;;;34.97;16.25;;;2.50;99.90;;;;;;5117247;28;20027;-67
2022/03/03 08:58:19;;;;;;;28.88;15.07;;;2.50;99.90;;;;;;5116153;28;20034;-65
2022/03/03 09:00:45;;;;;;;28.27;15.77;;;2.60;99.90;;;;;;5117697;28;20125;-66
2022/03/03 09:03:12;;;;;;;28.50;15.85;;;2.70;99.90;;;;;;5116430;28;20031;-64
2022/03/03 09:05:38;;;;;;;;;;;2.80;99.90;;;;;;5098088;28;20031;-64
2022/03/03 09:08:03;;;;;;;30.73;14.93;;;2.90;99.90;;;;;;5116280;28;19910;-65
2022/03/03 09:10:29;;;;;;;35.45;17.75;;;3.00;99.90;;;;;;5115340;28;20019;-64
2022/03/03 09:12:55;;;;;;;24.47;14.47;;;3.00;99.90;;;;;;5097311;28;20134;-64
2022/03/03 09:15:20;;;;;;;22.37;13.77;;;3.00;99.90;;;;;;5116076;28;20024;-64
2022/03/03 09:17:46;;;;;;;25.98;15.48;;;3.00;99.90;;;;;;5116302;28;20020;-63
2022/03/03 09:20:13;;;;;;;28.10;14.37;;;3.10;99.90;;;;;;5116576;28;20032;-64
2022/03/03 09:22:40;;;;;;;27.00;14.70;;;3.30;99.90;;;;;;5114712;28;20276;-65
2022/03/03 09:25:07;;;;;;;25.15;15.13;;;4.00;99.90;;;;;;5115945;28;20472;-65
2022/03/03 09:27:32;;;;;;;29.35;14.85;;;5.30;99.90;;;;;;5115549;28;20024;-64
2022/03/03 09:29:58;;;;;;;21.20;13.37;;;7.30;99.90;;;;;;5116150;28;20016;-66
2022/03/03 09:32:24;;;;;;;22.13;14.10;;;9.90;94.30;;;;;;5097379;28;20429;-66
2022/03/03 09:34:49;;;;;;;22.63;14.88;;;12.10;85.00;;;;;;5115381;28;20110;-65
2022/03/03 09:37:15;;;;;;;21.53;14.37;;;13.40;75.00;;;;;;5116042;28;20072;-64
2022/03/03 09:39:43;;;;;;;19.63;14.73;;;14.00;71.50;;;;;;5114415;28;20016;-65
2022/03/03 09:42:10;;;;;;;22.42;14.40;;;14.90;67.80;;;;;;5115145;28;20030;-64
2022/03/03 09:44:35;;;;;;;18.17;14.43;;;14.90;66.40;;;;;;5115563;28;20094;-64
2022/03/03 09:47:02;;;;;;;20.35;14.90;;;14.90;65.60;;;;;;5115370;28;20525;-65
2022/03/03 09:49:28;;;;;;;24.25;15.48;;;15.00;64.80;;;;;;5115202;28;20026;-66
2022/03/03 09:51:54;;;;;;;20.50;14.48;;;15.70;63.50;;;;;;5115160;28;20098;-66
2022/03/03 09:54:19;;;;;;;21.02;15.48;;;16.50;61.00;;;;;;5115688;28;20536;-65
2022/03/03 09:56:48;;;;;;;22.38;16.17;;;17.40;59.70;;;;;;5115851;28;20373;-66
2022/03/03 09:59:14;;;;;;;21.08;15.65;;;17.40;57.90;;;;;;5116793;28;20073;-65
2022/03/03 10:01:40;;;;;;;22.70;16.42;;;18.30;57.30;;;;;;5117884;28;20020;-69
2022/03/03 10:04:23;;;;;;;20.50;15.35;;;18.90;54.60;;;;;;5116671;28;20468;-68
2022/03/03 10:06:49;;;;;;;20.02;14.38;;;19.80;53.30;;;;;;5153017;22;20054;-66
2022/03/03 10:09:18;;;;;;;17.20;14.70;;;21.10;51.60;;;;;;5135340;27;20439;-65
2022/03/03 10:12:05;;;;;;;22.35;15.75;;;21.50;50.10;;;;;;5136003;27;20480;-64
2022/03/03 10:14:38;;;;;;;19.08;14.70;;;22.70;48.10;;;;;;5136120;27;20019;-64
2022/03/03 10:17:05;;;;;;;17.73;14.05;;;23.00;47.20;;;;;;5137762;27;20101;-65
2022/03/03 10:19:32;;;;;;;17.88;14.88;;;23.40;45.70;;;;;;5137425;27;20099;-66
2022/03/03 10:21:58;;;;;;;19.13;15.13;;;24.00;45.10;;;;;;5134925;27;20031;-64
2022/03/03 10:24:27;;;;;;;17.75;15.30;;;24.10;43.90;;;;;;5133526;27;20031;-64
2022/03/03 10:27:06;;;;;;;21.15;15.88;;;24.60;43.80;;;;;;5134868;27;20015;-65
2022/03/03 10:29:33;;;;;;;18.90;15.23;;;24.10;43.10;;;;;;5133488;27;20455;-64
2022/03/03 10:32:00;;;;;;;16.45;14.82;;;23.50;43.70;;;;;;5133744;27;20035;-65
2022/03/03 10:34:32;;;;;;;18.25;15.45;;;23.90;43.30;;;;;;5135160;27;20019;-64
2022/03/03 10:37:03;;;;;;;19.13;16.00;;;21.40;44.70;;;;;;5135025;27;20023;-66
2022/03/03 10:39:48;;;;;;;18.50;15.15;;;20.10;47.20;;;;;;5135349;27;20023;-66
2022/03/03 10:42:22;;;;;;;19.48;15.10;;;20.80;46.20;;;;;;5134611;27;20114;-65
2022/03/03 10:44:49;;;;;;;24.75;16.08;;;19.90;47.10;;;;;;5135000;27;20026;-65
2022/03/03 10:47:17;;;;;;;18.92;15.35;;;19.90;47.30;;;;;;5133172;27;20030;-65
2022/03/03 10:49:49;;;;;;;19.85;15.73;;;19.90;47.60;;;;;;5133367;27;20033;-66
2022/03/03 10:52:20;;;;;;;21.58;16.25;;;21.50;46.30;;;;;;5133933;27;20031;-65
2022/03/03 10:54:52;;;;;;;23.90;16.08;;;22.20;44.90;;;;;;5134429;27;20023;-64
2022/03/03 10:57:38;;;;;;;20.55;15.40;;;22.90;44.00;;;;;;5134565;27;20033;-64
2022/03/03 11:00:19;;;;;;;20.10;14.68;;;22.30;43.80;;;;;;5132925;27;20015;-64
2022/03/03 11:02:47;;;;;;;19.52;15.25;;;22.70;44.40;;;;;;5134668;27;20015;-64
2022/03/03 11:05:14;;;;;;;17.08;15.00;;;23.50;43.20;;;;;;5134131;27;20077;-65
2022/03/03 11:07:41;;;;;;;22.15;16.65;;;23.60;42.60;;;;;;5134463;27;20027;-64
2022/03/03 11:10:10;;;;;;;20.80;15.75;;;21.70;43.40;;;;;;5134588;27;20034;-64
2022/03/03 11:12:36;;;;;;;20.17;16.25;;;20.80;44.90;;;;;;5135364;27;20015;-64
2022/03/03 11:15:03;;;;;;;20.95;16.35;;;19.70;45.90;;;;;;5133946;27;20047;-65
2022/03/03 11:17:30;;;;;;;19.40;15.40;;;19.10;46.90;;;;;;5134632;27;20482;-65
2022/03/03 11:19:59;;;;;;;23.13;17.05;;;17.70;48.50;;;;;;5134776;27;20027;-65
2022/03/03 11:22:25;;;;;;;24.35;16.52;;;15.50;52.00;;;;;;5133285;27;20019;-64
2022/03/03 11:24:52;;;;;;;22.55;17.13;;;14.00;54.10;;;;;;5134360;27;20495;-64
2022/03/03 11:27:18;;;;;;;24.20;17.33;;;12.90;56.30;;;;;;5133349;27;20476;-65
2022/03/03 11:30:19;;;;;;;24.30;16.70;;;12.30;58.00;;;;;;5134539;27;20049;-64
2022/03/03 11:32:46;;;;;;;29.83;17.30;;;11.90;58.90;;;;;;5137607;27;20450;-65
2022/03/03 11:35:14;;;;;;;24.48;15.82;;;11.60;60.20;;;;;;5144919;27;20432;-65
2022/03/03 11:37:45;;;;;;;28.10;16.27;;;11.10;61.60;;;;;;5146539;27;20019;-65
2022/03/03 11:40:18;;;;;;;28.35;16.48;;;10.70;63.00;;;;;;5145913;27;20023;-65
2022/03/03 11:42:53;;;;;;;29.02;16.77;;;10.10;64.60;;;;;;5142139;27;20028;-66
2022/03/03 11:45:30;;;;;;;28.38;16.63;;;9.60;66.40;;;;;;5140492;27;20027;-69
2022/03/03 11:48:12;;;;;;;;;;;9.30;68.50;;;;;;5141417;27;20067;-67
2022/03/03 11:50:39;;;;;;;30.80;17.08;;;8.90;70.20;;;;;;5139485;27;19910;-66
2022/03/03 11:53:10;;;;;;;28.92;16.48;;;8.80;71.50;;;;;;5140880;27;20027;-66
2022/03/03 11:55:46;;;;;;;26.02;16.15;;;8.80;71.80;;;;;;5140793;27;20027;-65
2022/03/03 11:58:21;;;;;;;28.58;17.27;;;8.90;72.20;;;;;;5141017;27;20027;-67
2022/03/03 12:01:03;;;;;;;32.20;17.45;;;8.80;72.10;;;;;;5141904;27;20019;-67
2022/03/03 12:03:29;;;;;;;27.45;16.58;;;8.50;74.10;;;;;;5151954;27;20019;-67
2022/03/03 12:06:14;;;;;;;29.02;17.55;;;8.40;75.40;;;;;;5152200;27;20050;-67
2022/03/03 12:08:42;;;;;;;28.80;17.05;;;8.50;74.90;;;;;;5151219;27;20076;-67
2022/03/03 12:11:16;;;;;;;31.63;17.55;;;8.60;74.30;;;;;;5142191;27;20434;-65
2022/03/03 12:13:48;;;;;;;37.53;18.27;;;8.70;74.70;;;;;;5141280;27;20075;-67
2022/03/03 12:16:20;;;;;;;28.00;17.02;;;8.80;73.40;;;;;;5140667;27;20049;-70
2022/03/03 12:18:54;;;;;;;33.92;17.10;;;8.80;73.40;;;;;;5140004;27;20106;-69
2022/03/03 12:21:24;;;;;;;32.38;17.65;;;8.80;76.20;;;;;;5141268;27;20393;-69
2022/03/03 12:23:50;;;;;;;29.67;16.75;;;8.90;74.30;;;;;;5140685;27;20098;-68
2022/03/03 12:26:16;;;;;;;32.67;17.33;;;8.90;74.30;;;;;;5139397;27;20019;-67
2022/03/03 12:28:47;;;;;;;33.93;17.17;;;9.00;74.10;;;;;;5139173;27;20039;-70
2022/03/03 12:31:27;;;;;;;27.67;16.10;;;9.10;74.70;;;;;;5139281;27;20019;-65
2022/03/03 12:34:07;;;;;;;29.65;16.83;;;9.30;74.10;;;;;;5138563;27;20020;-66
2022/03/03 12:36:35;;;;;;;27.20;15.68;;;9.30;72.90;;;;;;5140165;27;20035;-70
2022/03/03 12:39:02;;;;;;;32.67;17.48;;;9.40;72.70;;;;;;5138772;27;20023;-71
2022/03/03 12:41:31;;;;;;;32.30;16.58;;;9.50;73.00;;;;;;5140782;27;20022;-69